createdAt,value
2022-12-01T00:00:03.413Z,95.31
2022-12-01T00:01:03.374Z,95.42
2022-12-01T00:02:03.501Z,95.42
2022-12-01T00:03:03.720Z,95.42
2022-12-01T00:04:03.365Z,95.31
2022-12-01T00:05:03.323Z,95.00
2022-12-01T00:06:03.325Z,94.90
2022-12-01T00:07:03.294Z,94.80
2022-12-01T00:08:03.431Z,94.70
2022-12-01T00:09:03.316Z,94.59
2022-12-01T00:10:03.269Z,94.49
2022-12-01T00:11:03.245Z,94.59
2022-12-01T00:12:03.234Z,94.59
2022-12-01T00:13:03.239Z,94.59
2022-12-01T00:14:03.210Z,94.59
2022-12-01T00:15:03.215Z,94.49
2022-12-01T00:16:03.278Z,94.38
2022-12-01T00:17:03.174Z,94.49
2022-12-01T00:18:03.200Z,94.59
2022-12-01T00:19:03.204Z,94.59
2022-12-01T00:20:03.154Z,94.38
2022-12-01T00:21:03.113Z,94.18
2022-12-01T00:22:03.104Z,94.18
2022-12-01T00:23:03.106Z,94.18
2022-12-01T00:24:03.089Z,94.28
2022-12-01T00:25:03.063Z,94.38
2022-12-01T00:26:03.094Z,94.49
2022-12-01T00:27:03.090Z,94.49
2022-12-01T00:28:03.081Z,94.49
2022-12-01T00:29:03.015Z,94.28
2022-12-01T00:30:03.002Z,94.08
2022-12-01T00:31:02.983Z,93.98
2022-12-01T00:32:03.115Z,94.08
2022-12-01T00:33:02.975Z,94.18
2022-12-01T00:34:05.730Z,94.12
2022-12-01T00:35:03.963Z,94.23
2022-12-01T00:36:02.926Z,94.28
2022-12-01T00:37:02.911Z,94.38
2022-12-01T00:38:02.914Z,94.38
2022-12-01T00:39:02.874Z,94.28
2022-12-01T00:40:02.901Z,94.18
2022-12-01T00:41:02.854Z,94.08
2022-12-01T00:42:02.847Z,94.08
2022-12-01T00:43:02.845Z,94.08
2022-12-01T00:44:02.815Z,94.18
2022-12-01T00:45:02.803Z,94.28
2022-12-01T00:46:02.863Z,94.18
2022-12-01T00:47:02.780Z,93.87
2022-12-01T00:48:02.786Z,93.87
2022-12-01T00:49:02.753Z,94.08
2022-12-01T00:50:02.736Z,94.18
2022-12-01T00:51:02.726Z,94.28
2022-12-01T00:52:02.714Z,94.38
2022-12-01T00:53:02.714Z,94.49
2022-12-01T00:54:02.684Z,94.59
2022-12-01T00:55:02.674Z,94.59
2022-12-01T00:56:02.655Z,94.38
2022-12-01T00:57:02.645Z,94.28
2022-12-01T00:58:02.654Z,94.28
2022-12-01T00:59:09.758Z,94.38
2022-12-01T01:00:02.618Z,94.70
2022-12-01T01:01:02.677Z,94.80
2022-12-01T01:02:02.632Z,94.80
2022-12-01T01:03:02.570Z,94.90
2022-12-01T01:04:02.560Z,95.00
2022-12-01T01:05:02.539Z,95.05
2022-12-01T01:06:02.529Z,95.15
2022-12-01T01:07:02.497Z,95.25
2022-12-01T01:08:02.584Z,95.46
2022-12-01T01:09:02.478Z,95.46
2022-12-01T01:10:02.488Z,95.46
2022-12-01T01:11:02.467Z,95.56
2022-12-01T01:12:02.457Z,95.67
2022-12-01T01:13:02.457Z,95.87
2022-12-01T01:14:02.418Z,95.87
2022-12-01T01:15:02.406Z,95.98
2022-12-01T01:16:02.399Z,96.08
2022-12-01T01:17:02.475Z,96.08
2022-12-01T01:18:02.388Z,96.18
2022-12-01T01:19:02.357Z,96.28
2022-12-01T01:20:02.348Z,96.28
2022-12-01T01:21:02.328Z,96.28
2022-12-01T01:22:02.317Z,96.39
2022-12-01T01:23:02.315Z,96.49
2022-12-01T01:24:02.299Z,96.59
2022-12-01T01:25:02.271Z,96.70
2022-12-01T01:26:02.267Z,96.59
2022-12-01T01:27:02.239Z,96.70
2022-12-01T01:28:02.256Z,96.70
2022-12-01T01:29:02.219Z,96.80
2022-12-01T01:30:02.218Z,96.91
2022-12-01T01:31:02.249Z,97.05
2022-12-01T01:32:02.253Z,97.11
2022-12-01T01:33:02.197Z,97.21
2022-12-01T01:34:02.157Z,97.31
2022-12-01T01:35:02.156Z,97.31
2022-12-01T01:36:02.136Z,97.47
2022-12-01T01:37:02.116Z,97.42
2022-12-01T01:38:02.109Z,97.52
2022-12-01T01:39:02.100Z,97.52
2022-12-01T01:40:02.084Z,97.52
2022-12-01T01:41:02.069Z,97.52
2022-12-01T01:42:02.059Z,97.52
2022-12-01T01:43:02.038Z,97.63
2022-12-01T01:44:02.047Z,97.63
2022-12-01T01:45:02.019Z,97.52
2022-12-01T01:46:02.028Z,97.52
2022-12-01T01:47:01.988Z,97.42
2022-12-01T01:48:01.979Z,97.42
2022-12-01T01:49:01.975Z,97.42
2022-12-01T01:50:01.950Z,97.31
2022-12-01T01:51:01.937Z,97.21
2022-12-01T01:52:01.918Z,97.21
2022-12-01T01:53:01.898Z,97.11
2022-12-01T01:54:01.918Z,97.11
2022-12-01T01:55:01.875Z,97.11
2022-12-01T01:56:01.868Z,97.11
2022-12-01T01:57:01.858Z,97.01
2022-12-01T01:58:01.848Z,96.91
2022-12-01T01:59:01.835Z,96.91
2022-12-01T02:00:01.807Z,96.91
2022-12-01T02:01:01.841Z,96.80
2022-12-01T02:02:01.848Z,96.80
2022-12-01T02:03:01.829Z,96.80
2022-12-01T02:04:01.778Z,96.80
2022-12-01T02:05:01.747Z,96.80
2022-12-01T02:06:04.680Z,96.70
2022-12-01T02:07:01.717Z,96.59
2022-12-01T02:08:01.790Z,96.49
2022-12-01T02:09:01.710Z,96.39
2022-12-01T02:10:01.676Z,96.39
2022-12-01T02:11:01.667Z,96.28
2022-12-01T02:12:01.657Z,96.39
2022-12-01T02:13:01.639Z,96.39
2022-12-01T02:14:01.646Z,96.34
2022-12-01T02:15:01.618Z,96.34
2022-12-01T02:16:01.592Z,96.34
2022-12-01T02:17:01.619Z,96.34
2022-12-01T02:18:01.578Z,96.24
2022-12-01T02:19:01.576Z,96.14
2022-12-01T02:20:01.553Z,96.14
2022-12-01T02:21:01.536Z,96.03
2022-12-01T02:22:01.520Z,96.03
2022-12-01T02:23:01.507Z,95.93
2022-12-01T02:24:01.516Z,95.83
2022-12-01T02:25:01.488Z,95.83
2022-12-01T02:26:01.466Z,95.83
2022-12-01T02:27:01.467Z,95.83
2022-12-01T02:28:01.437Z,95.73
2022-12-01T02:29:01.447Z,95.62
2022-12-01T02:30:01.423Z,95.52
2022-12-01T02:31:01.454Z,95.42
2022-12-01T02:32:01.390Z,95.21
2022-12-01T02:33:01.397Z,95.10
2022-12-01T02:34:01.377Z,95.10
2022-12-01T02:35:01.347Z,95.00
2022-12-01T02:36:01.339Z,95.10
2022-12-01T02:37:01.320Z,95.10
2022-12-01T02:38:01.308Z,95.21
2022-12-01T02:39:01.319Z,95.31
2022-12-01T02:40:01.282Z,95.42
2022-12-01T02:41:01.267Z,95.52
2022-12-01T02:42:01.259Z,95.52
2022-12-01T02:43:01.237Z,95.42
2022-12-01T02:44:01.228Z,95.42
2022-12-01T02:45:01.226Z,95.42
2022-12-01T02:46:01.250Z,95.52
2022-12-01T02:47:01.188Z,95.62
2022-12-01T02:48:01.177Z,95.73
2022-12-01T02:49:01.157Z,95.62
2022-12-01T02:50:01.167Z,95.31
2022-12-01T02:51:01.137Z,95.10
2022-12-01T02:52:01.117Z,94.90
2022-12-01T02:53:01.110Z,94.80
2022-12-01T02:54:01.097Z,94.65
2022-12-01T02:55:01.097Z,94.55
2022-12-01T02:56:01.067Z,94.45
2022-12-01T02:57:01.061Z,94.34
2022-12-01T02:58:01.046Z,94.45
2022-12-01T02:59:01.027Z,94.45
2022-12-01T03:00:01.028Z,94.45
2022-12-01T03:01:01.113Z,94.34
2022-12-01T03:02:00.987Z,94.45
2022-12-01T03:03:01.009Z,94.55
2022-12-01T03:04:00.960Z,94.65
2022-12-01T03:05:00.977Z,94.85
2022-12-01T03:06:00.939Z,94.96
2022-12-01T03:07:00.918Z,94.85
2022-12-01T03:08:00.996Z,94.76
2022-12-01T03:09:00.889Z,94.55
2022-12-01T03:10:00.908Z,94.55
2022-12-01T03:11:00.872Z,94.76
2022-12-01T03:12:00.848Z,94.76
2022-12-01T03:13:00.837Z,94.90
2022-12-01T03:14:00.826Z,94.96
2022-12-01T03:15:00.878Z,95.06
2022-12-01T03:16:00.886Z,95.06
2022-12-01T03:17:00.790Z,95.17
2022-12-01T03:18:00.777Z,95.27
2022-12-01T03:19:00.768Z,95.37
2022-12-01T03:20:00.749Z,95.48
2022-12-01T03:21:00.748Z,95.48
2022-12-01T03:22:00.718Z,95.58
2022-12-01T03:23:00.707Z,95.68
2022-12-01T03:24:00.698Z,95.58
2022-12-01T03:25:00.679Z,95.62
2022-12-01T03:26:00.688Z,95.62
2022-12-01T03:27:00.659Z,95.73
2022-12-01T03:28:20.598Z,95.73
2022-12-01T03:29:01.628Z,95.83
2022-12-01T03:30:00.618Z,95.83
2022-12-01T03:31:00.650Z,96.03
2022-12-01T03:32:00.586Z,96.03
2022-12-01T03:33:00.581Z,96.14
2022-12-01T03:34:00.567Z,96.24
2022-12-01T03:35:00.559Z,96.34
2022-12-01T03:36:00.567Z,96.34
2022-12-01T03:37:00.520Z,96.34
2022-12-01T03:38:00.517Z,96.34
2022-12-01T03:39:00.498Z,96.55
2022-12-01T03:40:01.410Z,96.55
2022-12-01T03:41:00.487Z,96.66
2022-12-01T03:42:00.503Z,96.75
2022-12-01T03:43:00.547Z,96.86
2022-12-01T03:44:00.437Z,96.86
2022-12-01T03:45:00.419Z,96.86
2022-12-01T03:46:00.608Z,96.86
2022-12-01T03:47:00.418Z,96.96
2022-12-01T03:48:00.379Z,96.96
2022-12-01T03:49:00.369Z,97.06
2022-12-01T03:50:00.556Z,97.17
2022-12-01T03:51:00.389Z,97.17
2022-12-01T03:52:00.328Z,97.27
2022-12-01T03:53:00.321Z,97.38
2022-12-01T03:54:00.307Z,97.38
2022-12-01T03:55:00.288Z,97.38
2022-12-01T03:56:00.305Z,97.38
2022-12-01T03:57:00.267Z,97.38
2022-12-01T03:58:00.248Z,97.38
2022-12-01T03:59:00.239Z,97.38
2022-12-01T04:00:00.232Z,97.27
2022-12-01T04:01:00.211Z,97.27
2022-12-01T04:02:00.252Z,97.27
2022-12-01T04:03:00.274Z,97.27
2022-12-01T04:04:00.169Z,97.17
2022-12-01T04:05:00.160Z,97.06
2022-12-01T04:06:00.156Z,97.06
2022-12-01T04:07:00.149Z,97.06
2022-12-01T04:08:00.224Z,97.06
2022-12-01T04:09:00.107Z,97.06
2022-12-01T04:10:00.132Z,97.06
2022-12-01T04:11:00.082Z,97.06
2022-12-01T04:12:00.088Z,97.06
2022-12-01T04:13:00.056Z,97.17
2022-12-01T04:14:00.041Z,97.17
2022-12-01T04:15:00.031Z,97.17
2022-12-01T04:16:00.069Z,97.17
2022-12-01T04:17:00.018Z,97.27
2022-12-01T04:17:59.997Z,97.38
2022-12-01T04:18:59.978Z,97.38
2022-12-01T04:19:59.960Z,97.52
2022-12-01T04:20:59.948Z,97.42
2022-12-01T04:21:59.957Z,97.42
2022-12-01T04:22:59.919Z,97.42
2022-12-01T04:23:59.911Z,97.42
2022-12-01T04:24:59.898Z,97.31
2022-12-01T04:25:59.887Z,97.21
2022-12-01T04:26:59.888Z,97.11
2022-12-01T04:27:59.859Z,96.91
2022-12-01T04:28:59.849Z,96.91
2022-12-01T04:29:59.827Z,97.01
2022-12-01T04:30:59.856Z,96.91
2022-12-01T04:31:59.827Z,96.91
2022-12-01T04:32:59.787Z,96.80
2022-12-01T04:33:59.777Z,96.70
2022-12-01T04:34:59.769Z,96.70
2022-12-01T04:35:59.766Z,96.59
2022-12-01T04:36:59.761Z,96.59
2022-12-01T04:37:59.728Z,96.59
2022-12-01T04:38:59.721Z,96.80
2022-12-01T04:39:59.700Z,96.80
2022-12-01T04:40:59.688Z,96.80
2022-12-01T04:41:59.707Z,96.80
2022-12-01T04:42:59.666Z,96.80
2022-12-01T04:43:59.650Z,96.70
2022-12-01T04:44:59.637Z,96.49
2022-12-01T04:45:59.638Z,96.49
2022-12-01T04:46:59.685Z,96.49
2022-12-01T04:47:59.617Z,96.59
2022-12-01T04:48:59.578Z,96.59
2022-12-01T04:49:59.567Z,96.49
2022-12-01T04:50:59.557Z,96.39
2022-12-01T04:51:59.532Z,96.49
2022-12-01T04:52:59.549Z,96.49
2022-12-01T04:53:59.527Z,96.49
2022-12-01T04:54:59.498Z,96.49
2022-12-01T04:55:59.502Z,96.49
2022-12-01T04:56:59.607Z,96.39
2022-12-01T04:57:59.478Z,96.39
2022-12-01T04:58:59.429Z,96.49
2022-12-01T04:59:59.439Z,96.70
2022-12-01T05:00:59.479Z,96.80
2022-12-01T05:01:59.463Z,96.80
2022-12-01T05:02:59.417Z,96.59
2022-12-01T05:03:59.396Z,96.53
2022-12-01T05:04:59.379Z,96.53
2022-12-01T05:05:59.366Z,96.53
2022-12-01T05:06:59.368Z,96.53
2022-12-01T05:07:59.406Z,96.53
2022-12-01T05:08:59.317Z,96.53
2022-12-01T05:09:59.308Z,96.64
2022-12-01T05:10:59.288Z,96.44
2022-12-01T05:11:59.279Z,96.44
2022-12-01T05:12:59.300Z,96.53
2022-12-01T05:13:59.259Z,96.53
2022-12-01T05:14:59.238Z,96.44
2022-12-01T05:15:59.271Z,96.53
2022-12-01T05:16:59.220Z,96.53
2022-12-01T05:17:59.220Z,96.44
2022-12-01T05:18:59.266Z,96.53
2022-12-01T05:19:59.178Z,96.53
2022-12-01T05:20:59.159Z,96.53
2022-12-01T05:21:59.147Z,96.53
2022-12-01T05:23:07.133Z,96.44
2022-12-01T05:24:00.127Z,96.44
2022-12-01T05:24:59.109Z,96.53
2022-12-01T05:25:59.098Z,96.53
2022-12-01T05:26:59.108Z,96.44
2022-12-01T05:27:59.132Z,96.53
2022-12-01T05:28:59.047Z,96.64
2022-12-01T05:29:59.039Z,96.53
2022-12-01T05:30:59.078Z,96.44
2022-12-01T05:31:59.060Z,96.53
2022-12-01T05:32:59.063Z,96.53
2022-12-01T05:33:59.007Z,96.64
2022-12-01T05:34:58.977Z,96.74
2022-12-01T05:35:58.967Z,96.74
2022-12-01T05:36:58.988Z,96.74
2022-12-01T05:38:01.981Z,96.74
2022-12-01T05:38:59.930Z,96.74
2022-12-01T05:39:58.917Z,96.64
2022-12-01T05:40:58.897Z,96.64
2022-12-01T05:41:58.889Z,96.64
2022-12-01T05:42:58.888Z,96.64
2022-12-01T05:43:58.877Z,96.74
2022-12-01T05:44:58.856Z,96.84
2022-12-01T05:45:58.914Z,96.84
2022-12-01T05:46:58.828Z,96.84
2022-12-01T05:47:58.827Z,96.84
2022-12-01T05:48:58.824Z,96.84
2022-12-01T05:50:03.782Z,96.84
2022-12-01T05:50:59.767Z,96.74
2022-12-01T05:51:58.770Z,96.74
2022-12-01T05:52:58.758Z,96.74
2022-12-01T05:53:59.847Z,96.74
2022-12-01T05:54:59.939Z,99.90
2022-12-01T05:55:58.815Z,99.85
2022-12-01T05:56:59.845Z,98.82
2022-12-01T05:57:58.911Z,97.89
2022-12-01T05:58:58.667Z,96.86
2022-12-01T05:59:58.659Z,95.98
2022-12-01T06:00:58.640Z,95.46
2022-12-01T06:01:58.675Z,95.05
2022-12-01T06:02:58.639Z,95.15
2022-12-01T06:03:58.657Z,95.05
2022-12-01T06:04:58.588Z,94.99
2022-12-01T06:05:58.578Z,94.99
2022-12-01T06:06:58.570Z,94.99
2022-12-01T06:07:58.713Z,95.09
2022-12-01T06:08:58.548Z,95.09
2022-12-01T06:09:58.533Z,94.89
2022-12-01T06:10:58.517Z,94.68
2022-12-01T06:11:58.498Z,94.68
2022-12-01T06:12:58.478Z,94.78
2022-12-01T06:13:58.488Z,94.99
2022-12-01T06:14:58.468Z,95.09
2022-12-01T06:15:58.457Z,95.20
2022-12-01T06:16:58.449Z,95.09
2022-12-01T06:17:58.426Z,95.09
2022-12-01T06:18:58.458Z,95.20
2022-12-01T06:19:58.388Z,95.20
2022-12-01T06:20:58.378Z,95.30
2022-12-01T06:21:58.369Z,95.20
2022-12-01T06:22:58.365Z,95.20
2022-12-01T06:23:58.368Z,95.34
2022-12-01T06:24:58.356Z,95.30
2022-12-01T06:25:58.314Z,95.20
2022-12-01T06:26:58.315Z,95.14
2022-12-01T06:27:58.289Z,95.03
2022-12-01T06:28:58.286Z,94.93
2022-12-01T06:29:58.258Z,94.93
2022-12-01T06:31:03.212Z,94.72
2022-12-01T06:31:59.304Z,94.52
2022-12-01T06:32:58.210Z,94.52
2022-12-01T06:33:58.230Z,94.62
2022-12-01T06:34:58.197Z,94.52
2022-12-01T06:35:58.178Z,94.52
2022-12-01T06:36:58.175Z,94.52
2022-12-01T06:37:58.158Z,94.62
2022-12-01T06:38:58.178Z,94.72
2022-12-01T06:39:58.133Z,94.72
2022-12-01T06:40:58.139Z,94.62
2022-12-01T06:41:58.106Z,94.52
2022-12-01T06:42:58.098Z,94.42
2022-12-01T06:43:58.099Z,94.42
2022-12-01T06:44:58.075Z,94.52
2022-12-01T06:46:01.952Z,94.52
2022-12-01T06:46:58.060Z,94.52
2022-12-01T06:47:58.040Z,94.42
2022-12-01T06:48:58.047Z,94.31
2022-12-01T06:49:58.018Z,94.21
2022-12-01T06:50:57.990Z,94.10
2022-12-01T06:52:00.715Z,94.10
2022-12-01T06:52:59.347Z,94.31
2022-12-01T06:54:03.795Z,94.21
2022-12-01T06:54:58.939Z,94.21
2022-12-01T06:55:57.931Z,94.10
2022-12-01T06:56:57.927Z,93.90
2022-12-01T06:57:57.899Z,93.90
2022-12-01T06:58:57.898Z,93.90
2022-12-01T06:59:57.867Z,94.00
2022-12-01T07:00:57.924Z,94.10
2022-12-01T07:01:57.927Z,94.10
2022-12-01T07:02:57.925Z,94.10
2022-12-01T07:03:57.827Z,94.10
2022-12-01T07:04:57.808Z,93.79
2022-12-01T07:05:57.796Z,93.59
2022-12-01T07:06:57.777Z,93.49
2022-12-01T07:07:59.715Z,93.49
2022-12-01T07:08:57.777Z,93.59
2022-12-01T07:09:57.738Z,93.69
2022-12-01T07:10:57.729Z,93.69
2022-12-01T07:11:57.708Z,93.59
2022-12-01T07:12:57.699Z,93.59
2022-12-01T07:13:57.707Z,93.69
2022-12-01T07:14:57.686Z,93.79
2022-12-01T07:15:57.658Z,93.90
2022-12-01T07:16:57.718Z,94.00
2022-12-01T07:17:57.639Z,93.90
2022-12-01T07:18:57.652Z,94.00
2022-12-01T07:19:57.617Z,94.00
2022-12-01T07:20:57.598Z,94.00
2022-12-01T07:21:57.601Z,94.00
2022-12-01T07:22:57.568Z,94.00
2022-12-01T07:23:57.577Z,94.10
2022-12-01T07:24:57.562Z,94.21
2022-12-01T07:25:57.527Z,94.31
2022-12-01T07:26:57.525Z,94.42
2022-12-01T07:27:57.517Z,94.62
2022-12-01T07:28:57.508Z,94.62
2022-12-01T07:29:57.484Z,94.56
2022-12-01T07:30:57.508Z,94.56
2022-12-01T07:31:57.458Z,94.56
2022-12-01T07:32:57.457Z,94.67
2022-12-01T07:33:57.440Z,94.67
2022-12-01T07:34:57.455Z,94.67
2022-12-01T07:35:57.389Z,94.67
2022-12-01T07:36:57.389Z,94.56
2022-12-01T07:37:57.367Z,94.56
2022-12-01T07:38:57.389Z,94.67
2022-12-01T07:39:57.376Z,94.67
2022-12-01T07:40:57.339Z,94.77
2022-12-01T07:41:57.339Z,94.87
2022-12-01T07:42:57.307Z,94.97
2022-12-01T07:43:57.318Z,94.77
2022-12-01T07:44:57.280Z,94.77
2022-12-01T07:45:57.310Z,94.67
2022-12-01T07:46:57.257Z,94.67
2022-12-01T07:47:57.238Z,94.67
2022-12-01T07:48:57.247Z,94.77
2022-12-01T07:49:57.217Z,94.77
2022-12-01T07:50:57.208Z,94.87
2022-12-01T07:51:57.187Z,94.97
2022-12-01T07:52:57.179Z,95.07
2022-12-01T07:53:57.190Z,95.07
2022-12-01T07:54:57.154Z,95.18
2022-12-01T07:55:57.138Z,95.18
2022-12-01T07:56:57.149Z,95.07
2022-12-01T07:57:57.107Z,95.07
2022-12-01T07:58:57.107Z,95.18
2022-12-01T07:59:57.087Z,95.07
2022-12-01T08:00:57.078Z,95.07
2022-12-01T08:01:57.100Z,95.07
2022-12-01T08:02:57.150Z,94.97
2022-12-01T08:03:57.054Z,94.87
2022-12-01T08:04:57.027Z,94.87
2022-12-01T08:05:57.007Z,95.03
2022-12-01T08:06:56.999Z,95.07
2022-12-01T08:07:57.026Z,95.14
2022-12-01T08:08:56.988Z,95.03
2022-12-01T08:09:56.988Z,94.77
2022-12-01T08:10:56.969Z,94.56
2022-12-01T08:11:56.938Z,94.46
2022-12-01T08:12:56.926Z,94.35
2022-12-01T08:13:56.908Z,94.46
2022-12-01T08:14:56.906Z,94.56
2022-12-01T08:15:56.947Z,94.67
2022-12-01T08:16:56.868Z,94.77
2022-12-01T08:17:56.847Z,94.97
2022-12-01T08:18:56.846Z,94.97
2022-12-01T08:19:56.847Z,95.07
2022-12-01T08:20:56.807Z,95.18
2022-12-01T08:21:56.787Z,95.07
2022-12-01T08:22:56.789Z,94.97
2022-12-01T08:23:56.788Z,94.97
2022-12-01T08:24:56.768Z,94.56
2022-12-01T08:25:56.737Z,94.25
2022-12-01T08:26:56.735Z,94.35
2022-12-01T08:27:56.776Z,94.35
2022-12-01T08:28:56.708Z,94.46
2022-12-01T08:29:56.707Z,94.56
2022-12-01T08:30:56.758Z,94.67
2022-12-01T08:31:56.668Z,94.56
2022-12-01T08:32:56.647Z,94.67
2022-12-01T08:33:56.637Z,94.56
2022-12-01T08:34:56.647Z,94.46
2022-12-01T08:35:56.607Z,94.15
2022-12-01T08:36:56.601Z,94.15
2022-12-01T08:37:56.583Z,94.25
2022-12-01T08:38:56.567Z,94.46
2022-12-01T08:39:56.567Z,94.56
2022-12-01T08:40:56.540Z,94.56
2022-12-01T08:41:56.556Z,94.56
2022-12-01T08:42:56.518Z,94.46
2022-12-01T08:43:58.408Z,94.46
2022-12-01T08:44:56.578Z,94.25
2022-12-01T08:45:56.485Z,94.35
2022-12-01T08:46:56.623Z,94.56
2022-12-01T08:47:56.459Z,94.77
2022-12-01T08:48:56.444Z,94.87
2022-12-01T08:49:56.438Z,94.87
2022-12-01T08:50:56.436Z,94.87
2022-12-01T08:51:56.402Z,94.67
2022-12-01T08:52:56.405Z,94.77
2022-12-01T08:53:56.366Z,94.97
2022-12-01T08:54:56.377Z,95.07
2022-12-01T08:55:56.348Z,94.97
2022-12-01T08:56:56.367Z,94.97
2022-12-01T08:57:56.316Z,94.87
2022-12-01T08:58:56.315Z,94.77
2022-12-01T08:59:56.310Z,94.77
2022-12-01T09:00:56.294Z,94.67
2022-12-01T09:01:56.340Z,94.56
2022-12-01T09:02:56.313Z,94.46
2022-12-01T09:03:56.236Z,94.35
2022-12-01T09:04:56.266Z,94.25
2022-12-01T09:05:56.217Z,94.15
2022-12-01T09:06:56.209Z,93.94
2022-12-01T09:07:56.220Z,93.94
2022-12-01T09:08:56.179Z,93.84
2022-12-01T09:09:56.176Z,93.84
2022-12-01T09:10:56.156Z,94.19
2022-12-01T09:11:56.136Z,94.40
2022-12-01T09:12:56.127Z,94.50
2022-12-01T09:13:56.106Z,94.50
2022-12-01T09:14:56.115Z,94.40
2022-12-01T09:15:56.130Z,94.40
2022-12-01T09:16:56.076Z,94.50
2022-12-01T09:17:56.056Z,94.29
2022-12-01T09:18:56.037Z,94.09
2022-12-01T09:19:56.056Z,93.98
2022-12-01T09:20:56.018Z,93.88
2022-12-01T09:21:55.996Z,93.88
2022-12-01T09:22:55.994Z,93.98
2022-12-01T09:23:55.977Z,93.88
2022-12-01T09:24:55.977Z,93.78
2022-12-01T09:25:55.946Z,93.98
2022-12-01T09:26:55.956Z,93.88
2022-12-01T09:27:55.926Z,93.78
2022-12-01T09:28:55.906Z,93.78
2022-12-01T09:29:55.913Z,93.88
2022-12-01T09:30:56.089Z,93.78
2022-12-01T09:31:55.908Z,93.78
2022-12-01T09:32:55.856Z,93.63
2022-12-01T09:33:55.836Z,93.63
2022-12-01T09:34:55.847Z,93.63
2022-12-01T09:35:55.816Z,93.43
2022-12-01T09:36:55.810Z,93.32
2022-12-01T09:37:55.786Z,93.22
2022-12-01T09:38:55.787Z,93.26
2022-12-01T09:39:55.775Z,93.26
2022-12-01T09:40:55.745Z,93.16
2022-12-01T09:41:55.739Z,93.12
2022-12-01T09:42:55.728Z,93.12
2022-12-01T09:43:55.706Z,93.01
2022-12-01T09:44:55.726Z,93.01
2022-12-01T09:45:55.686Z,93.22
2022-12-01T09:46:55.712Z,93.43
2022-12-01T09:47:55.694Z,93.43
2022-12-01T09:48:55.653Z,93.43
2022-12-01T09:49:55.647Z,93.22
2022-12-01T09:50:55.616Z,92.91
2022-12-01T09:51:55.607Z,92.91
2022-12-01T09:52:55.600Z,92.91
2022-12-01T09:53:55.591Z,93.01
2022-12-01T09:54:55.575Z,93.01
2022-12-01T09:56:00.638Z,92.80
2022-12-01T09:56:56.543Z,92.29
2022-12-01T09:57:55.538Z,92.29
2022-12-01T09:58:55.529Z,92.33
2022-12-01T09:59:55.506Z,92.40
2022-12-01T10:00:55.566Z,92.40
2022-12-01T10:01:55.524Z,92.40
2022-12-01T10:02:55.466Z,92.29
2022-12-01T10:03:55.445Z,92.08
2022-12-01T10:04:55.512Z,92.19
2022-12-01T10:06:26.625Z,92.08
2022-12-01T10:06:56.419Z,91.98
2022-12-01T10:07:55.448Z,91.67
2022-12-01T10:08:55.395Z,91.56
2022-12-01T10:09:55.406Z,91.26
2022-12-01T10:10:55.376Z,91.26
2022-12-01T10:11:55.335Z,91.16
2022-12-01T10:12:55.334Z,91.36
2022-12-01T10:13:55.326Z,91.36
2022-12-01T10:14:55.309Z,91.46
2022-12-01T10:15:55.373Z,91.67
2022-12-01T10:16:55.278Z,91.77
2022-12-01T10:17:55.277Z,91.56
2022-12-01T10:18:55.277Z,91.46
2022-12-01T10:19:55.227Z,91.77
2022-12-01T10:20:55.246Z,92.19
2022-12-01T10:21:55.216Z,92.40
2022-12-01T10:22:55.195Z,92.19
2022-12-01T10:23:55.194Z,91.67
2022-12-01T10:24:55.175Z,91.05
2022-12-01T10:25:55.196Z,90.74
2022-12-01T10:26:55.151Z,90.95
2022-12-01T10:27:55.149Z,90.74
2022-12-01T10:28:55.136Z,90.95
2022-12-01T10:29:55.120Z,90.95
2022-12-01T10:30:55.106Z,90.64
2022-12-01T10:31:55.117Z,90.43
2022-12-01T10:32:55.069Z,90.43
2022-12-01T10:33:55.063Z,90.64
2022-12-01T10:34:55.035Z,90.84
2022-12-01T10:35:55.069Z,90.74
2022-12-01T10:36:55.016Z,90.64
2022-12-01T10:37:55.084Z,90.22
2022-12-01T10:38:55.003Z,90.12
2022-12-01T10:39:54.987Z,90.33
2022-12-01T10:40:54.986Z,90.33
2022-12-01T10:41:54.956Z,90.74
2022-12-01T10:42:54.996Z,91.05
2022-12-01T10:43:54.946Z,91.26
2022-12-01T10:44:54.906Z,90.95
2022-12-01T10:45:54.930Z,90.95
2022-12-01T10:46:54.958Z,90.80
2022-12-01T10:47:57.659Z,90.28
2022-12-01T10:48:54.857Z,89.87
2022-12-01T10:49:54.848Z,89.98
2022-12-01T10:50:54.844Z,89.77
2022-12-01T10:51:54.838Z,89.71
2022-12-01T10:52:54.805Z,89.29
2022-12-01T10:53:54.807Z,89.09
2022-12-01T10:54:54.786Z,89.40
2022-12-01T10:55:54.798Z,89.61
2022-12-01T10:56:54.759Z,89.81
2022-12-01T10:57:54.744Z,89.50
2022-12-01T10:58:54.734Z,88.98
2022-12-01T10:59:54.718Z,88.89
2022-12-01T11:01:02.251Z,88.47
2022-12-01T11:01:55.886Z,88.26
2022-12-01T11:02:54.887Z,88.16
2022-12-01T11:03:54.704Z,88.26
2022-12-01T11:04:54.688Z,88.47
2022-12-01T11:05:54.686Z,88.06
2022-12-01T11:06:54.632Z,87.95
2022-12-01T11:07:54.713Z,88.06
2022-12-01T11:08:54.598Z,87.85
2022-12-01T11:09:54.607Z,87.13
2022-12-01T11:10:54.577Z,87.02
2022-12-01T11:11:54.584Z,86.82
2022-12-01T11:12:54.546Z,86.10
2022-12-01T11:13:54.516Z,86.20
2022-12-01T11:14:54.534Z,86.30
2022-12-01T11:15:54.506Z,86.61
2022-12-01T11:16:54.605Z,86.41
2022-12-01T11:17:54.485Z,86.10
2022-12-01T11:18:54.502Z,86.20
2022-12-01T11:19:54.510Z,86.51
2022-12-01T11:20:54.447Z,85.78
2022-12-01T11:21:54.455Z,84.96
2022-12-01T11:22:54.418Z,84.34
2022-12-01T11:23:54.414Z,84.96
2022-12-01T11:24:54.395Z,85.27
2022-12-01T11:25:54.385Z,85.47
2022-12-01T11:26:54.391Z,85.37
2022-12-01T11:27:54.346Z,85.89
2022-12-01T11:28:54.334Z,85.99
2022-12-01T11:29:54.335Z,86.30
2022-12-01T11:30:56.696Z,86.82
2022-12-01T11:31:54.375Z,86.71
2022-12-01T11:32:54.284Z,87.13
2022-12-01T11:33:54.285Z,86.61
2022-12-01T11:34:54.257Z,86.61
2022-12-01T11:35:54.252Z,86.61
2022-12-01T11:36:54.246Z,86.10
2022-12-01T11:38:27.579Z,86.30
2022-12-01T11:38:55.204Z,86.78
2022-12-01T11:39:54.200Z,86.92
2022-12-01T11:40:54.178Z,87.29
2022-12-01T11:41:54.197Z,87.40
2022-12-01T11:42:54.155Z,86.57
2022-12-01T11:44:01.629Z,86.88
2022-12-01T11:44:55.124Z,86.88
2022-12-01T11:45:54.152Z,86.68
2022-12-01T11:47:07.813Z,86.98
2022-12-01T11:47:55.113Z,86.98
2022-12-01T11:48:54.098Z,86.78
2022-12-01T11:49:54.145Z,87.50
2022-12-01T11:50:54.063Z,87.29
2022-12-01T11:51:54.044Z,86.78
2022-12-01T11:52:54.078Z,87.19
2022-12-01T11:53:54.015Z,86.98
2022-12-01T11:54:53.995Z,86.88
2022-12-01T11:55:54.645Z,86.10
2022-12-01T11:57:25.340Z,86.51
2022-12-01T11:57:54.982Z,86.82
2022-12-01T11:58:53.968Z,87.54
2022-12-01T11:59:53.944Z,87.65
2022-12-01T12:00:53.915Z,86.61
2022-12-01T12:01:53.998Z,86.92
2022-12-01T12:02:53.923Z,87.44
2022-12-01T12:03:53.932Z,87.44
2022-12-01T12:04:53.923Z,87.65
2022-12-01T12:05:57.599Z,88.47
2022-12-01T12:06:54.837Z,88.68
2022-12-01T12:07:53.893Z,88.06
2022-12-01T12:08:53.855Z,87.13
2022-12-01T12:09:53.804Z,86.61
2022-12-01T12:10:53.856Z,86.71
2022-12-01T12:11:53.787Z,87.54
2022-12-01T12:12:53.816Z,87.74
2022-12-01T12:13:53.764Z,88.26
2022-12-01T12:14:53.737Z,88.68
2022-12-01T12:15:53.729Z,88.89
2022-12-01T12:16:53.722Z,89.09
2022-12-01T12:17:53.758Z,88.47
2022-12-01T12:18:53.686Z,88.06
2022-12-01T12:20:09.764Z,87.74
2022-12-01T12:20:54.665Z,88.26
2022-12-01T12:21:53.654Z,87.95
2022-12-01T12:22:55.675Z,87.44
2022-12-01T12:23:53.625Z,86.82
2022-12-01T12:24:53.604Z,86.61
2022-12-01T12:25:53.612Z,86.71
2022-12-01T12:26:53.575Z,86.82
2022-12-01T12:27:53.585Z,87.34
2022-12-01T12:28:53.585Z,87.23
2022-12-01T12:29:53.556Z,87.34
2022-12-01T12:30:53.569Z,87.54
2022-12-01T12:31:53.525Z,87.23
2022-12-01T12:32:53.524Z,87.13
2022-12-01T12:33:53.501Z,86.92
2022-12-01T12:34:53.601Z,86.92
2022-12-01T12:35:53.488Z,86.51
2022-12-01T12:36:53.445Z,86.61
2022-12-01T12:37:53.465Z,86.51
2022-12-01T12:38:53.425Z,86.41
2022-12-01T12:39:53.413Z,86.61
2022-12-01T12:40:53.397Z,86.61
2022-12-01T12:41:53.394Z,87.02
2022-12-01T12:42:53.365Z,86.51
2022-12-01T12:43:53.384Z,86.71
2022-12-01T12:44:53.355Z,86.61
2022-12-01T12:45:53.375Z,86.92
2022-12-01T12:46:53.314Z,86.92
2022-12-01T12:47:53.315Z,87.23
2022-12-01T12:49:54.305Z,86.82
2022-12-01T12:50:53.508Z,86.71
2022-12-01T12:51:53.344Z,86.61
2022-12-01T12:52:53.567Z,86.41